sensor_id;sensor_type;location;lat;lon;timestamp;P1;durP1;ratioP1;P2;durP2;ratioP2
18659;SDS011;9459;50.254;19.014;2024-02-04T00:00:25;6.55;;;4.30;;
18659;SDS011;9459;50.254;19.014;2024-02-04T00:03:15;6.05;;;4.25;;
18659;SDS011;9459;50.254;19.014;2024-02-04T00:05:44;7.10;;;4.90;;
18659;SDS011;9459;50.254;19.014;2024-02-04T00:08:12;7.40;;;4.38;;
18659;SDS011;9459;50.254;19.014;2024-02-04T00:10:44;6.72;;;3.97;;
18659;SDS011;9459;50.254;19.014;2024-02-04T00:13:13;6.00;;;3.85;;
18659;SDS011;9459;50.254;19.014;2024-02-04T00:15:41;5.30;;;3.38;;
18659;SDS011;9459;50.254;19.014;2024-02-04T00:18:10;6.93;;;3.63;;
18659;SDS011;9459;50.254;19.014;2024-02-04T00:20:40;7.38;;;4.30;;
18659;SDS011;9459;50.254;19.014;2024-02-04T00:23:08;8.07;;;4.95;;
18659;SDS011;9459;50.254;19.014;2024-02-04T00:25:37;9.85;;;5.72;;
18659;SDS011;9459;50.254;19.014;2024-02-04T00:28:08;11.63;;;6.03;;
18659;SDS011;9459;50.254;19.014;2024-02-04T00:30:38;12.47;;;7.10;;
18659;SDS011;9459;50.254;19.014;2024-02-04T00:33:07;11.57;;;5.93;;
18659;SDS011;9459;50.254;19.014;2024-02-04T00:35:36;12.27;;;6.97;;
18659;SDS011;9459;50.254;19.014;2024-02-04T00:38:05;13.15;;;7.20;;
18659;SDS011;9459;50.254;19.014;2024-02-04T00:40:34;14.25;;;7.47;;
18659;SDS011;9459;50.254;19.014;2024-02-04T00:43:04;15.93;;;7.32;;
18659;SDS011;9459;50.254;19.014;2024-02-04T00:45:33;12.30;;;7.07;;
18659;SDS011;9459;50.254;19.014;2024-02-04T00:48:02;13.57;;;7.63;;
18659;SDS011;9459;50.254;19.014;2024-02-04T00:50:31;12.60;;;7.32;;
18659;SDS011;9459;50.254;19.014;2024-02-04T00:52:59;14.45;;;7.90;;
18659;SDS011;9459;50.254;19.014;2024-02-04T00:55:29;13.52;;;6.78;;
18659;SDS011;9459;50.254;19.014;2024-02-04T00:57:57;15.68;;;8.20;;
18659;SDS011;9459;50.254;19.014;2024-02-04T01:00:31;13.57;;;7.97;;
18659;SDS011;9459;50.254;19.014;2024-02-04T01:02:59;16.55;;;8.43;;
18659;SDS011;9459;50.254;19.014;2024-02-04T01:05:28;13.70;;;7.43;;
18659;SDS011;9459;50.254;19.014;2024-02-04T01:07:57;14.85;;;7.82;;
18659;SDS011;9459;50.254;19.014;2024-02-04T01:10:26;13.95;;;7.22;;
18659;SDS011;9459;50.254;19.014;2024-02-04T01:12:56;13.00;;;7.30;;
18659;SDS011;9459;50.254;19.014;2024-02-04T01:15:25;11.63;;;7.18;;
18659;SDS011;9459;50.254;19.014;2024-02-04T01:17:54;13.85;;;7.43;;
18659;SDS011;9459;50.254;19.014;2024-02-04T01:20:22;11.73;;;7.25;;
18659;SDS011;9459;50.254;19.014;2024-02-04T01:22:51;12.18;;;7.03;;
18659;SDS011;9459;50.254;19.014;2024-02-04T01:25:19;9.95;;;6.22;;
18659;SDS011;9459;50.254;19.014;2024-02-04T01:27:48;10.88;;;5.82;;
18659;SDS011;9459;50.254;19.014;2024-02-04T01:30:18;9.05;;;5.78;;
18659;SDS011;9459;50.254;19.014;2024-02-04T01:32:47;8.68;;;5.03;;
18659;SDS011;9459;50.254;19.014;2024-02-04T01:35:16;9.07;;;5.05;;
18659;SDS011;9459;50.254;19.014;2024-02-04T01:37:45;9.25;;;5.13;;
18659;SDS011;9459;50.254;19.014;2024-02-04T01:40:16;9.90;;;4.70;;
18659;SDS011;9459;50.254;19.014;2024-02-04T01:42:44;8.88;;;4.72;;
18659;SDS011;9459;50.254;19.014;2024-02-04T01:45:13;7.30;;;4.13;;
18659;SDS011;9459;50.254;19.014;2024-02-04T01:47:43;7.20;;;3.92;;
18659;SDS011;9459;50.254;19.014;2024-02-04T01:50:12;7.60;;;3.23;;
18659;SDS011;9459;50.254;19.014;2024-02-04T01:52:40;7.95;;;3.20;;
18659;SDS011;9459;50.254;19.014;2024-02-04T01:55:10;5.32;;;3.15;;
18659;SDS011;9459;50.254;19.014;2024-02-04T01:57:38;4.45;;;2.90;;
18659;SDS011;9459;50.254;19.014;2024-02-04T02:00:08;6.32;;;3.22;;
18659;SDS011;9459;50.254;19.014;2024-02-04T02:02:39;5.57;;;2.97;;
18659;SDS011;9459;50.254;19.014;2024-02-04T02:05:09;5.18;;;3.38;;
18659;SDS011;9459;50.254;19.014;2024-02-04T02:07:39;4.47;;;3.22;;
18659;SDS011;9459;50.254;19.014;2024-02-04T02:10:08;6.40;;;3.10;;
18659;SDS011;9459;50.254;19.014;2024-02-04T02:12:39;4.53;;;2.60;;
18659;SDS011;9459;50.254;19.014;2024-02-04T02:15:11;5.75;;;2.67;;
18659;SDS011;9459;50.254;19.014;2024-02-04T02:17:44;4.43;;;2.88;;
18659;SDS011;9459;50.254;19.014;2024-02-04T02:20:19;4.05;;;2.42;;
18659;SDS011;9459;50.254;19.014;2024-02-04T02:22:50;3.75;;;2.25;;
18659;SDS011;9459;50.254;19.014;2024-02-04T02:25:22;3.40;;;2.53;;
18659;SDS011;9459;50.254;19.014;2024-02-04T02:27:51;4.03;;;2.08;;
18659;SDS011;9459;50.254;19.014;2024-02-04T02:30:20;5.53;;;2.15;;
18659;SDS011;9459;50.254;19.014;2024-02-04T02:32:49;3.05;;;1.90;;
18659;SDS011;9459;50.254;19.014;2024-02-04T02:35:18;4.05;;;2.08;;
18659;SDS011;9459;50.254;19.014;2024-02-04T02:37:49;5.05;;;1.98;;
18659;SDS011;9459;50.254;19.014;2024-02-04T02:40:25;2.78;;;1.27;;
18659;SDS011;9459;50.254;19.014;2024-02-04T02:42:56;4.03;;;1.23;;
18659;SDS011;9459;50.254;19.014;2024-02-04T02:45:25;3.83;;;2.03;;
18659;SDS011;9459;50.254;19.014;2024-02-04T02:47:54;3.28;;;1.27;;
18659;SDS011;9459;50.254;19.014;2024-02-04T02:50:23;1.95;;;1.00;;
18659;SDS011;9459;50.254;19.014;2024-02-04T02:52:53;1.63;;;0.97;;
18659;SDS011;9459;50.254;19.014;2024-02-04T02:55:23;2.15;;;1.10;;
18659;SDS011;9459;50.254;19.014;2024-02-04T02:57:52;2.60;;;1.35;;
18659;SDS011;9459;50.254;19.014;2024-02-04T03:00:21;2.13;;;1.10;;
18659;SDS011;9459;50.254;19.014;2024-02-04T03:02:50;2.53;;;1.10;;
18659;SDS011;9459;50.254;19.014;2024-02-04T03:05:19;1.20;;;0.75;;
18659;SDS011;9459;50.254;19.014;2024-02-04T03:07:47;2.10;;;0.93;;
18659;SDS011;9459;50.254;19.014;2024-02-04T03:10:17;3.05;;;1.33;;
18659;SDS011;9459;50.254;19.014;2024-02-04T03:12:47;0.52;;;0.52;;
18659;SDS011;9459;50.254;19.014;2024-02-04T03:15:15;0.82;;;0.68;;
18659;SDS011;9459;50.254;19.014;2024-02-04T03:17:44;0.77;;;0.70;;
18659;SDS011;9459;50.254;19.014;2024-02-04T03:20:12;1.77;;;0.70;;
18659;SDS011;9459;50.254;19.014;2024-02-04T03:22:41;2.17;;;0.88;;
18659;SDS011;9459;50.254;19.014;2024-02-04T03:25:11;2.42;;;0.98;;
18659;SDS011;9459;50.254;19.014;2024-02-04T03:27:40;1.85;;;1.10;;
18659;SDS011;9459;50.254;19.014;2024-02-04T03:30:10;1.42;;;0.93;;
18659;SDS011;9459;50.254;19.014;2024-02-04T03:32:39;1.60;;;0.95;;
18659;SDS011;9459;50.254;19.014;2024-02-04T03:35:08;2.40;;;1.20;;
18659;SDS011;9459;50.254;19.014;2024-02-04T03:37:36;2.50;;;1.08;;
18659;SDS011;9459;50.254;19.014;2024-02-04T03:40:05;1.70;;;0.90;;
18659;SDS011;9459;50.254;19.014;2024-02-04T03:42:34;1.73;;;0.98;;
18659;SDS011;9459;50.254;19.014;2024-02-04T03:45:03;1.15;;;0.98;;
18659;SDS011;9459;50.254;19.014;2024-02-04T03:47:34;1.80;;;1.00;;
18659;SDS011;9459;50.254;19.014;2024-02-04T03:50:03;1.95;;;1.10;;
18659;SDS011;9459;50.254;19.014;2024-02-04T03:52:32;2.10;;;1.00;;
18659;SDS011;9459;50.254;19.014;2024-02-04T03:55:01;2.88;;;1.20;;
18659;SDS011;9459;50.254;19.014;2024-02-04T03:57:29;1.50;;;1.20;;
18659;SDS011;9459;50.254;19.014;2024-02-04T03:59:58;2.20;;;1.20;;
18659;SDS011;9459;50.254;19.014;2024-02-04T04:02:26;1.83;;;1.13;;
18659;SDS011;9459;50.254;19.014;2024-02-04T04:04:56;2.85;;;1.17;;
18659;SDS011;9459;50.254;19.014;2024-02-04T04:07:25;1.77;;;0.90;;
18659;SDS011;9459;50.254;19.014;2024-02-04T04:09:53;2.35;;;1.23;;
18659;SDS011;9459;50.254;19.014;2024-02-04T04:12:24;3.25;;;1.15;;
18659;SDS011;9459;50.254;19.014;2024-02-04T04:14:53;1.60;;;1.20;;
18659;SDS011;9459;50.254;19.014;2024-02-04T04:17:21;3.95;;;1.10;;
18659;SDS011;9459;50.254;19.014;2024-02-04T04:19:49;1.98;;;1.25;;
18659;SDS011;9459;50.254;19.014;2024-02-04T04:22:19;2.95;;;1.55;;
18659;SDS011;9459;50.254;19.014;2024-02-04T04:24:48;3.15;;;1.67;;
18659;SDS011;9459;50.254;19.014;2024-02-04T04:27:16;2.00;;;1.20;;
18659;SDS011;9459;50.254;19.014;2024-02-04T04:29:45;3.45;;;1.30;;
18659;SDS011;9459;50.254;19.014;2024-02-04T04:32:13;3.83;;;2.10;;
18659;SDS011;9459;50.254;19.014;2024-02-04T04:34:42;2.92;;;2.50;;
18659;SDS011;9459;50.254;19.014;2024-02-04T04:37:10;3.33;;;3.03;;
18659;SDS011;9459;50.254;19.014;2024-02-04T04:39:40;2.83;;;2.55;;
18659;SDS011;9459;50.254;19.014;2024-02-04T04:42:09;2.88;;;2.40;;
18659;SDS011;9459;50.254;19.014;2024-02-04T04:44:37;4.07;;;2.45;;
18659;SDS011;9459;50.254;19.014;2024-02-04T04:47:06;4.30;;;3.50;;
18659;SDS011;9459;50.254;19.014;2024-02-04T04:49:34;4.20;;;3.00;;
18659;SDS011;9459;50.254;19.014;2024-02-04T04:52:03;5.55;;;2.67;;
18659;SDS011;9459;50.254;19.014;2024-02-04T04:54:32;4.30;;;2.63;;
18659;SDS011;9459;50.254;19.014;2024-02-04T04:57:02;4.03;;;2.72;;
18659;SDS011;9459;50.254;19.014;2024-02-04T04:59:30;2.78;;;2.50;;
18659;SDS011;9459;50.254;19.014;2024-02-04T05:01:59;2.22;;;1.95;;
18659;SDS011;9459;50.254;19.014;2024-02-04T05:04:27;3.67;;;1.52;;
18659;SDS011;9459;50.254;19.014;2024-02-04T05:06:56;1.83;;;1.73;;
18659;SDS011;9459;50.254;19.014;2024-02-04T05:09:25;2.67;;;1.50;;
18659;SDS011;9459;50.254;19.014;2024-02-04T05:11:54;1.60;;;1.30;;
18659;SDS011;9459;50.254;19.014;2024-02-04T05:14:28;0.95;;;0.85;;
18659;SDS011;9459;50.254;19.014;2024-02-04T05:16:56;1.20;;;0.80;;
18659;SDS011;9459;50.254;19.014;2024-02-04T05:19:25;1.90;;;1.38;;
18659;SDS011;9459;50.254;19.014;2024-02-04T05:21:53;1.45;;;1.10;;
18659;SDS011;9459;50.254;19.014;2024-02-04T05:24:22;1.80;;;1.08;;
18659;SDS011;9459;50.254;19.014;2024-02-04T05:26:50;1.33;;;1.05;;
18659;SDS011;9459;50.254;19.014;2024-02-04T05:29:19;2.15;;;1.30;;
18659;SDS011;9459;50.254;19.014;2024-02-04T05:31:49;2.30;;;1.80;;
18659;SDS011;9459;50.254;19.014;2024-02-04T05:34:18;2.03;;;1.45;;
18659;SDS011;9459;50.254;19.014;2024-02-04T05:36:46;2.95;;;1.38;;
18659;SDS011;9459;50.254;19.014;2024-02-04T05:39:15;2.00;;;1.10;;
18659;SDS011;9459;50.254;19.014;2024-02-04T05:41:44;1.88;;;1.40;;
18659;SDS011;9459;50.254;19.014;2024-02-04T05:44:15;1.92;;;1.38;;
18659;SDS011;9459;50.254;19.014;2024-02-04T05:46:43;1.65;;;1.35;;
18659;SDS011;9459;50.254;19.014;2024-02-04T05:49:14;2.65;;;1.40;;
18659;SDS011;9459;50.254;19.014;2024-02-04T05:51:43;2.88;;;1.50;;
18659;SDS011;9459;50.254;19.014;2024-02-04T05:54:13;2.78;;;1.35;;
18659;SDS011;9459;50.254;19.014;2024-02-04T05:56:41;2.88;;;1.30;;
18659;SDS011;9459;50.254;19.014;2024-02-04T05:59:10;2.70;;;1.35;;
18659;SDS011;9459;50.254;19.014;2024-02-04T06:01:38;3.80;;;1.50;;
18659;SDS011;9459;50.254;19.014;2024-02-04T06:04:07;2.97;;;1.02;;
18659;SDS011;9459;50.254;19.014;2024-02-04T06:06:36;2.30;;;1.15;;
18659;SDS011;9459;50.254;19.014;2024-02-04T06:09:05;2.95;;;1.30;;
18659;SDS011;9459;50.254;19.014;2024-02-04T06:11:35;3.35;;;1.00;;
18659;SDS011;9459;50.254;19.014;2024-02-04T06:14:03;3.90;;;1.10;;
18659;SDS011;9459;50.254;19.014;2024-02-04T06:16:32;1.52;;;0.90;;
18659;SDS011;9459;50.254;19.014;2024-02-04T06:19:01;2.53;;;1.00;;
18659;SDS011;9459;50.254;19.014;2024-02-04T06:21:30;2.08;;;1.10;;
18659;SDS011;9459;50.254;19.014;2024-02-04T06:24:00;1.83;;;0.93;;
18659;SDS011;9459;50.254;19.014;2024-02-04T06:26:29;3.58;;;1.15;;
18659;SDS011;9459;50.254;19.014;2024-02-04T06:28:57;3.63;;;1.33;;
18659;SDS011;9459;50.254;19.014;2024-02-04T06:31:26;1.80;;;1.02;;
18659;SDS011;9459;50.254;19.014;2024-02-04T06:33:54;1.65;;;1.08;;
18659;SDS011;9459;50.254;19.014;2024-02-04T06:36:22;3.40;;;0.90;;
18659;SDS011;9459;50.254;19.014;2024-02-04T06:38:51;4.93;;;1.20;;
18659;SDS011;9459;50.254;19.014;2024-02-04T06:41:21;3.25;;;1.00;;
18659;SDS011;9459;50.254;19.014;2024-02-04T06:43:50;2.72;;;1.05;;
18659;SDS011;9459;50.254;19.014;2024-02-04T06:46:25;3.60;;;1.10;;
18659;SDS011;9459;50.254;19.014;2024-02-04T06:48:54;1.75;;;1.20;;
18659;SDS011;9459;50.254;19.014;2024-02-04T06:51:22;1.63;;;1.00;;
18659;SDS011;9459;50.254;19.014;2024-02-04T06:53:51;3.53;;;1.17;;
18659;SDS011;9459;50.254;19.014;2024-02-04T06:56:21;2.05;;;1.00;;
18659;SDS011;9459;50.254;19.014;2024-02-04T06:58:50;2.50;;;0.95;;
18659;SDS011;9459;50.254;19.014;2024-02-04T07:01:19;2.78;;;1.40;;
18659;SDS011;9459;50.254;19.014;2024-02-04T07:03:47;2.45;;;1.00;;
18659;SDS011;9459;50.254;19.014;2024-02-04T07:06:17;3.08;;;1.20;;
18659;SDS011;9459;50.254;19.014;2024-02-04T07:08:45;3.30;;;1.30;;
18659;SDS011;9459;50.254;19.014;2024-02-04T07:11:14;3.92;;;2.00;;
18659;SDS011;9459;50.254;19.014;2024-02-04T07:13:44;4.20;;;1.70;;
18659;SDS011;9459;50.254;19.014;2024-02-04T07:16:13;6.97;;;3.40;;
18659;SDS011;9459;50.254;19.014;2024-02-04T07:18:41;7.90;;;3.35;;
18659;SDS011;9459;50.254;19.014;2024-02-04T07:21:10;3.40;;;1.70;;
18659;SDS011;9459;50.254;19.014;2024-02-04T07:23:38;2.65;;;1.35;;
18659;SDS011;9459;50.254;19.014;2024-02-04T07:26:07;4.68;;;2.00;;
18659;SDS011;9459;50.254;19.014;2024-02-04T07:28:36;2.83;;;1.60;;
18659;SDS011;9459;50.254;19.014;2024-02-04T07:31:06;4.63;;;1.73;;
18659;SDS011;9459;50.254;19.014;2024-02-04T07:33:35;3.83;;;1.50;;
18659;SDS011;9459;50.254;19.014;2024-02-04T07:36:04;2.50;;;1.48;;
18659;SDS011;9459;50.254;19.014;2024-02-04T07:38:34;4.50;;;1.85;;
18659;SDS011;9459;50.254;19.014;2024-02-04T07:41:03;2.97;;;1.25;;
18659;SDS011;9459;50.254;19.014;2024-02-04T07:43:32;4.60;;;1.60;;
18659;SDS011;9459;50.254;19.014;2024-02-04T07:46:00;4.65;;;2.15;;
18659;SDS011;9459;50.254;19.014;2024-02-04T07:48:33;4.90;;;2.28;;
18659;SDS011;9459;50.254;19.014;2024-02-04T07:51:02;4.82;;;2.30;;
18659;SDS011;9459;50.254;19.014;2024-02-04T07:53:31;6.20;;;2.00;;
18659;SDS011;9459;50.254;19.014;2024-02-04T07:55:59;4.45;;;1.92;;
18659;SDS011;9459;50.254;19.014;2024-02-04T07:58:29;4.23;;;2.00;;
18659;SDS011;9459;50.254;19.014;2024-02-04T08:00:58;5.80;;;3.22;;
18659;SDS011;9459;50.254;19.014;2024-02-04T08:03:28;3.60;;;1.90;;
18659;SDS011;9459;50.254;19.014;2024-02-04T08:05:58;5.22;;;2.30;;
18659;SDS011;9459;50.254;19.014;2024-02-04T08:08:29;7.50;;;2.20;;
18659;SDS011;9459;50.254;19.014;2024-02-04T08:10:58;4.25;;;2.30;;
18659;SDS011;9459;50.254;19.014;2024-02-04T08:13:28;5.20;;;2.00;;
18659;SDS011;9459;50.254;19.014;2024-02-04T08:15:56;4.95;;;2.33;;
18659;SDS011;9459;50.254;19.014;2024-02-04T08:18:25;3.88;;;1.80;;
18659;SDS011;9459;50.254;19.014;2024-02-04T08:20:53;5.97;;;2.75;;
18659;SDS011;9459;50.254;19.014;2024-02-04T08:23:23;5.85;;;2.75;;
18659;SDS011;9459;50.254;19.014;2024-02-04T08:25:51;5.93;;;2.38;;
18659;SDS011;9459;50.254;19.014;2024-02-04T08:28:20;7.53;;;3.17;;
18659;SDS011;9459;50.254;19.014;2024-02-04T08:30:50;5.47;;;1.98;;
18659;SDS011;9459;50.254;19.014;2024-02-04T08:33:19;3.95;;;2.22;;
18659;SDS011;9459;50.254;19.014;2024-02-04T08:35:48;3.30;;;1.70;;
18659;SDS011;9459;50.254;19.014;2024-02-04T08:38:17;6.75;;;2.05;;
18659;SDS011;9459;50.254;19.014;2024-02-04T08:40:47;6.80;;;1.85;;
18659;SDS011;9459;50.254;19.014;2024-02-04T08:43:16;11.57;;;4.47;;
18659;SDS011;9459;50.254;19.014;2024-02-04T08:45:45;4.07;;;1.88;;
18659;SDS011;9459;50.254;19.014;2024-02-04T08:48:14;5.22;;;1.95;;
18659;SDS011;9459;50.254;19.014;2024-02-04T08:50:42;5.10;;;2.60;;
18659;SDS011;9459;50.254;19.014;2024-02-04T08:53:11;8.48;;;4.25;;
18659;SDS011;9459;50.254;19.014;2024-02-04T08:55:39;4.63;;;2.30;;
18659;SDS011;9459;50.254;19.014;2024-02-04T08:58:10;6.05;;;2.33;;
18659;SDS011;9459;50.254;19.014;2024-02-04T09:00:39;6.72;;;2.50;;
18659;SDS011;9459;50.254;19.014;2024-02-04T09:03:08;5.88;;;3.30;;
18659;SDS011;9459;50.254;19.014;2024-02-04T09:05:36;9.88;;;5.38;;
18659;SDS011;9459;50.254;19.014;2024-02-04T09:08:05;9.50;;;4.78;;
18659;SDS011;9459;50.254;19.014;2024-02-04T09:10:34;8.93;;;4.10;;
18659;SDS011;9459;50.254;19.014;2024-02-04T09:13:03;9.18;;;4.22;;
18659;SDS011;9459;50.254;19.014;2024-02-04T09:15:33;3.88;;;2.30;;
18659;SDS011;9459;50.254;19.014;2024-02-04T09:18:02;5.28;;;2.25;;
18659;SDS011;9459;50.254;19.014;2024-02-04T09:20:31;5.80;;;2.67;;
18659;SDS011;9459;50.254;19.014;2024-02-04T09:23:00;4.97;;;1.88;;
18659;SDS011;9459;50.254;19.014;2024-02-04T09:25:29;5.50;;;3.00;;
18659;SDS011;9459;50.254;19.014;2024-02-04T09:27:58;5.53;;;2.88;;
18659;SDS011;9459;50.254;19.014;2024-02-04T09:30:27;6.72;;;3.20;;
18659;SDS011;9459;50.254;19.014;2024-02-04T09:32:58;6.68;;;3.05;;
18659;SDS011;9459;50.254;19.014;2024-02-04T09:35:26;6.80;;;2.78;;
18659;SDS011;9459;50.254;19.014;2024-02-04T09:37:56;6.25;;;2.55;;
18659;SDS011;9459;50.254;19.014;2024-02-04T09:40:25;7.68;;;3.63;;
18659;SDS011;9459;50.254;19.014;2024-02-04T09:42:54;5.05;;;2.55;;
18659;SDS011;9459;50.254;19.014;2024-02-04T09:45:23;6.90;;;2.67;;
18659;SDS011;9459;50.254;19.014;2024-02-04T09:47:52;10.50;;;5.70;;
18659;SDS011;9459;50.254;19.014;2024-02-04T09:50:23;8.40;;;3.90;;
18659;SDS011;9459;50.254;19.014;2024-02-04T09:52:53;7.78;;;4.13;;
18659;SDS011;9459;50.254;19.014;2024-02-04T09:55:26;7.47;;;3.35;;
18659;SDS011;9459;50.254;19.014;2024-02-04T09:57:55;7.80;;;3.28;;
18659;SDS011;9459;50.254;19.014;2024-02-04T10:00:24;7.68;;;3.80;;
18659;SDS011;9459;50.254;19.014;2024-02-04T10:05:26;10.65;;;3.95;;
18659;SDS011;9459;50.254;19.014;2024-02-04T10:07:55;7.28;;;2.85;;
18659;SDS011;9459;50.254;19.014;2024-02-04T10:10:24;5.13;;;3.28;;
18659;SDS011;9459;50.254;19.014;2024-02-04T10:12:54;7.60;;;3.70;;
18659;SDS011;9459;50.254;19.014;2024-02-04T10:15:22;9.18;;;4.03;;
18659;SDS011;9459;50.254;19.014;2024-02-04T10:17:51;9.00;;;4.05;;
18659;SDS011;9459;50.254;19.014;2024-02-04T10:20:20;6.47;;;3.00;;
18659;SDS011;9459;50.254;19.014;2024-02-04T10:22:51;8.77;;;4.35;;
18659;SDS011;9459;50.254;19.014;2024-02-04T10:25:20;11.57;;;4.13;;
18659;SDS011;9459;50.254;19.014;2024-02-04T10:27:48;5.18;;;2.58;;
18659;SDS011;9459;50.254;19.014;2024-02-04T10:30:18;9.27;;;4.50;;
18659;SDS011;9459;50.254;19.014;2024-02-04T10:32:47;6.78;;;2.63;;
18659;SDS011;9459;50.254;19.014;2024-02-04T10:35:16;6.32;;;3.00;;
18659;SDS011;9459;50.254;19.014;2024-02-04T10:37:46;7.80;;;2.90;;
18659;SDS011;9459;50.254;19.014;2024-02-04T10:40:16;6.57;;;2.92;;
18659;SDS011;9459;50.254;19.014;2024-02-04T10:42:45;7.03;;;2.33;;
18659;SDS011;9459;50.254;19.014;2024-02-04T10:45:15;5.88;;;2.85;;
18659;SDS011;9459;50.254;19.014;2024-02-04T10:47:47;6.13;;;2.55;;
18659;SDS011;9459;50.254;19.014;2024-02-04T10:50:20;4.95;;;2.50;;
18659;SDS011;9459;50.254;19.014;2024-02-04T10:52:49;7.22;;;3.20;;
18659;SDS011;9459;50.254;19.014;2024-02-04T10:55:20;4.35;;;2.55;;
18659;SDS011;9459;50.254;19.014;2024-02-04T10:57:55;8.80;;;5.00;;
18659;SDS011;9459;50.254;19.014;2024-02-04T11:00:25;9.80;;;4.63;;
18659;SDS011;9459;50.254;19.014;2024-02-04T11:02:54;6.55;;;3.40;;
18659;SDS011;9459;50.254;19.014;2024-02-04T11:05:23;7.40;;;3.25;;
18659;SDS011;9459;50.254;19.014;2024-02-04T11:07:52;6.45;;;2.85;;
18659;SDS011;9459;50.254;19.014;2024-02-04T11:10:22;7.00;;;3.17;;
18659;SDS011;9459;50.254;19.014;2024-02-04T11:12:52;6.82;;;3.35;;
18659;SDS011;9459;50.254;19.014;2024-02-04T11:15:21;6.60;;;3.35;;
18659;SDS011;9459;50.254;19.014;2024-02-04T11:18:09;16.90;;;9.02;;
18659;SDS011;9459;50.254;19.014;2024-02-04T11:20:53;9.98;;;5.78;;
18659;SDS011;9459;50.254;19.014;2024-02-04T11:23:35;8.88;;;4.63;;
18659;SDS011;9459;50.254;19.014;2024-02-04T11:26:08;6.85;;;3.20;;
18659;SDS011;9459;50.254;19.014;2024-02-04T11:28:37;4.72;;;2.90;;
18659;SDS011;9459;50.254;19.014;2024-02-04T11:31:13;5.88;;;2.70;;
18659;SDS011;9459;50.254;19.014;2024-02-04T11:33:42;9.25;;;4.05;;
18659;SDS011;9459;50.254;19.014;2024-02-04T11:36:12;6.63;;;3.75;;
18659;SDS011;9459;50.254;19.014;2024-02-04T11:38:43;9.70;;;4.13;;
18659;SDS011;9459;50.254;19.014;2024-02-04T11:41:20;5.38;;;3.63;;
18659;SDS011;9459;50.254;19.014;2024-02-04T11:43:51;8.60;;;4.38;;
18659;SDS011;9459;50.254;19.014;2024-02-04T11:46:27;8.63;;;4.10;;
18659;SDS011;9459;50.254;19.014;2024-02-04T11:48:57;10.25;;;5.20;;
18659;SDS011;9459;50.254;19.014;2024-02-04T11:51:26;8.82;;;5.65;;
18659;SDS011;9459;50.254;19.014;2024-02-04T11:53:58;7.65;;;5.10;;
18659;SDS011;9459;50.254;19.014;2024-02-04T11:56:34;8.45;;;5.50;;
18659;SDS011;9459;50.254;19.014;2024-02-04T11:59:04;7.95;;;5.25;;
18659;SDS011;9459;50.254;19.014;2024-02-04T12:01:35;9.82;;;6.38;;
18659;SDS011;9459;50.254;19.014;2024-02-04T12:04:09;12.02;;;6.85;;
18659;SDS011;9459;50.254;19.014;2024-02-04T12:06:38;10.63;;;7.07;;
18659;SDS011;9459;50.254;19.014;2024-02-04T12:09:09;16.80;;;12.67;;
18659;SDS011;9459;50.254;19.014;2024-02-04T12:11:39;12.48;;;8.23;;
18659;SDS011;9459;50.254;19.014;2024-02-04T12:14:08;10.20;;;6.88;;
18659;SDS011;9459;50.254;19.014;2024-02-04T12:16:37;11.88;;;6.55;;
18659;SDS011;9459;50.254;19.014;2024-02-04T12:19:07;11.85;;;6.95;;
18659;SDS011;9459;50.254;19.014;2024-02-04T12:21:36;9.48;;;7.55;;
18659;SDS011;9459;50.254;19.014;2024-02-04T12:24:05;13.15;;;8.57;;
18659;SDS011;9459;50.254;19.014;2024-02-04T12:26:34;15.25;;;9.40;;
18659;SDS011;9459;50.254;19.014;2024-02-04T12:29:05;17.45;;;12.50;;
18659;SDS011;9459;50.254;19.014;2024-02-04T12:31:34;15.57;;;9.75;;
18659;SDS011;9459;50.254;19.014;2024-02-04T12:34:05;15.98;;;8.75;;
18659;SDS011;9459;50.254;19.014;2024-02-04T12:36:34;17.30;;;10.65;;
18659;SDS011;9459;50.254;19.014;2024-02-04T12:39:02;23.52;;;13.02;;
18659;SDS011;9459;50.254;19.014;2024-02-04T12:41:31;31.90;;;19.65;;
18659;SDS011;9459;50.254;19.014;2024-02-04T12:44:00;36.85;;;21.80;;
18659;SDS011;9459;50.254;19.014;2024-02-04T12:46:31;35.63;;;21.58;;
18659;SDS011;9459;50.254;19.014;2024-02-04T12:49:00;21.55;;;14.40;;
18659;SDS011;9459;50.254;19.014;2024-02-04T12:51:33;16.48;;;9.75;;
18659;SDS011;9459;50.254;19.014;2024-02-04T12:54:03;31.63;;;19.70;;
18659;SDS011;9459;50.254;19.014;2024-02-04T12:56:43;36.15;;;26.45;;
18659;SDS011;9459;50.254;19.014;2024-02-04T12:59:26;18.83;;;10.55;;
18659;SDS011;9459;50.254;19.014;2024-02-04T13:01:58;18.13;;;10.57;;
18659;SDS011;9459;50.254;19.014;2024-02-04T13:07:06;20.38;;;10.73;;
18659;SDS011;9459;50.254;19.014;2024-02-04T13:09:37;17.85;;;10.07;;
18659;SDS011;9459;50.254;19.014;2024-02-04T13:12:06;16.52;;;9.10;;
18659;SDS011;9459;50.254;19.014;2024-02-04T13:14:36;13.70;;;8.38;;
18659;SDS011;9459;50.254;19.014;2024-02-04T13:17:06;18.75;;;10.20;;
18659;SDS011;9459;50.254;19.014;2024-02-04T13:19:36;22.52;;;12.05;;
18659;SDS011;9459;50.254;19.014;2024-02-04T13:22:06;18.33;;;10.07;;
18659;SDS011;9459;50.254;19.014;2024-02-04T13:24:37;13.80;;;8.35;;
18659;SDS011;9459;50.254;19.014;2024-02-04T13:27:07;15.73;;;8.70;;
18659;SDS011;9459;50.254;19.014;2024-02-04T13:29:36;12.57;;;8.20;;
18659;SDS011;9459;50.254;19.014;2024-02-04T13:32:04;15.35;;;8.70;;
18659;SDS011;9459;50.254;19.014;2024-02-04T13:34:35;18.23;;;9.98;;
18659;SDS011;9459;50.254;19.014;2024-02-04T13:37:03;17.23;;;8.15;;
18659;SDS011;9459;50.254;19.014;2024-02-04T13:39:33;14.65;;;8.55;;
18659;SDS011;9459;50.254;19.014;2024-02-04T13:42:02;11.45;;;7.25;;
18659;SDS011;9459;50.254;19.014;2024-02-04T13:44:31;9.93;;;6.00;;
18659;SDS011;9459;50.254;19.014;2024-02-04T13:46:59;10.82;;;5.72;;
18659;SDS011;9459;50.254;19.014;2024-02-04T13:49:29;7.45;;;5.10;;
18659;SDS011;9459;50.254;19.014;2024-02-04T13:51:57;7.50;;;5.25;;
18659;SDS011;9459;50.254;19.014;2024-02-04T13:54:26;11.13;;;7.10;;
18659;SDS011;9459;50.254;19.014;2024-02-04T13:56:55;8.50;;;6.30;;
18659;SDS011;9459;50.254;19.014;2024-02-04T13:59:23;9.15;;;6.32;;
18659;SDS011;9459;50.254;19.014;2024-02-04T14:01:52;9.50;;;6.07;;
18659;SDS011;9459;50.254;19.014;2024-02-04T14:04:27;9.32;;;5.35;;
18659;SDS011;9459;50.254;19.014;2024-02-04T14:06:58;8.95;;;5.22;;
18659;SDS011;9459;50.254;19.014;2024-02-04T14:09:26;10.45;;;5.50;;
18659;SDS011;9459;50.254;19.014;2024-02-04T14:11:55;8.80;;;4.90;;
18659;SDS011;9459;50.254;19.014;2024-02-04T14:14:25;8.73;;;4.75;;
18659;SDS011;9459;50.254;19.014;2024-02-04T14:16:53;8.68;;;6.13;;
18659;SDS011;9459;50.254;19.014;2024-02-04T14:19:22;7.10;;;4.22;;
18659;SDS011;9459;50.254;19.014;2024-02-04T14:21:51;5.53;;;3.78;;
18659;SDS011;9459;50.254;19.014;2024-02-04T14:24:21;6.95;;;3.90;;
18659;SDS011;9459;50.254;19.014;2024-02-04T14:26:55;10.10;;;4.40;;
18659;SDS011;9459;50.254;19.014;2024-02-04T14:29:24;7.70;;;3.95;;
18659;SDS011;9459;50.254;19.014;2024-02-04T14:31:53;10.30;;;6.03;;
18659;SDS011;9459;50.254;19.014;2024-02-04T14:34:23;8.10;;;5.32;;
18659;SDS011;9459;50.254;19.014;2024-02-04T14:36:52;21.55;;;14.02;;
18659;SDS011;9459;50.254;19.014;2024-02-04T14:39:22;51.78;;;32.55;;
18659;SDS011;9459;50.254;19.014;2024-02-04T14:41:51;10.85;;;7.18;;
18659;SDS011;9459;50.254;19.014;2024-02-04T14:44:21;10.15;;;6.85;;
18659;SDS011;9459;50.254;19.014;2024-02-04T14:46:50;6.28;;;4.07;;
18659;SDS011;9459;50.254;19.014;2024-02-04T14:49:19;6.45;;;4.60;;
18659;SDS011;9459;50.254;19.014;2024-02-04T14:51:49;5.95;;;4.50;;
18659;SDS011;9459;50.254;19.014;2024-02-04T14:54:19;7.07;;;6.15;;
18659;SDS011;9459;50.254;19.014;2024-02-04T14:56:49;6.07;;;3.65;;
18659;SDS011;9459;50.254;19.014;2024-02-04T14:59:19;6.82;;;3.95;;
18659;SDS011;9459;50.254;19.014;2024-02-04T15:01:49;10.10;;;4.60;;